Rechercher aéroport 
image banner adimage banner adimage banner ad
image banner ad

34CN - Bonanza Hills

Situé à Snelling, United States

ICAO - 34CN, IATA -

Données fournies par Airmate  

Information générale

Coordonnées: N37°31'25" W120°23'52"
Élévation : 295 feet MSL.
Variation magnétique : 15° East
Voir autres Aéroports à California

Données opérationnelles

Special qualification required
Heure actuelle UTC:
Heure actuelle locale:
Météo à : KMER - Castle ( 22 km )
METAR: KMER 251235Z AUTO 32007KT 10SM CLR 20/07 A2987 RMK AO1
TAF: KMER 251120Z 2512/2612 33008KT P6SM FEW250 FM251600 31009KT P6SM FEW250 FM260400 33007KT P6SM SCT250
Voir NOTAMs / SUP AIP / TFR affectant cet aéroport [VIEW]
Fréquences de communication: [VIEW]

Pistes:

Identifiant RWYQFULongueur (ft)Largeur (ft)SurfaceLDA (ft)
074100100OTHER
254100100OTHER

Coordonnées de l'aéroport

Adresse: Snelling United States

Vue satellite de 34CN